RJA433 OJAI-OSAP
Flight info
| Callsign | RJA433 |
|---|---|
| Flight time | 0h 50m |
| Altitude | 35000 |
| Route | LOSAR L513 LEBOR/N0415F270 R655 KTN/N0406F260 Q538 KILO |
| Aircraft | A321/M-SDE3FGHIRWY/LB1 |
Departure
| Time | 2026-04-25 19:36 |
|---|---|
| Airport | Queen Alia International Airport (OJAI) |
Arrival
| Time | 2026-04-25 20:26 |
|---|---|
| Airport | Aleppo International Airport (OSAP) |
| Time | Latitude | Longitude | Altitude | Speed | Heading |
|---|---|---|---|---|---|
| 2026-04-25 19:06 | 31.72424 | 35.98767 | 2418 ft | 0 kts | 171° |
| 2026-04-25 19:23 | 31.72437 | 35.98765 | 2417 ft | 4 kts | 168° |
| 2026-04-25 19:23 | 31.72463 | 35.98757 | 2418 ft | 4 kts | 156° |
| 2026-04-25 19:24 | 31.72485 | 35.98741 | 2418 ft | 4 kts | 129° |
| 2026-04-25 19:24 | 31.72492 | 35.98720 | 2418 ft | 1 kts | 80° |
| 2026-04-25 19:27 | 31.72495 | 35.98736 | 2418 ft | 5 kts | 80° |
| 2026-04-25 19:27 | 31.72503 | 35.98795 | 2418 ft | 9 kts | 81° |
| 2026-04-25 19:28 | 31.72514 | 35.98871 | 2418 ft | 9 kts | 79° |
| 2026-04-25 19:28 | 31.72565 | 35.98919 | 2418 ft | 12 kts | 4° |
| 2026-04-25 19:28 | 31.72655 | 35.98916 | 2418 ft | 14 kts | 21° |
| 2026-04-25 19:28 | 31.72694 | 35.99028 | 2418 ft | 16 kts | 80° |
| 2026-04-25 19:29 | 31.72715 | 35.99169 | 2417 ft | 19 kts | 80° |
| 2026-04-25 19:29 | 31.72737 | 35.99317 | 2417 ft | 19 kts | 79° |
| 2026-04-25 19:29 | 31.72756 | 35.99454 | 2417 ft | 17 kts | 80° |
| 2026-04-25 19:29 | 31.72777 | 35.99602 | 2418 ft | 19 kts | 81° |
| 2026-04-25 19:30 | 31.72800 | 35.99744 | 2418 ft | 18 kts | 80° |
| 2026-04-25 19:30 | 31.72820 | 35.99888 | 2418 ft | 18 kts | 80° |
| 2026-04-25 19:30 | 31.72842 | 36.00034 | 2418 ft | 19 kts | 80° |
| 2026-04-25 19:30 | 31.72861 | 36.00169 | 2418 ft | 15 kts | 80° |
| 2026-04-25 19:31 | 31.72877 | 36.00274 | 2418 ft | 11 kts | 80° |
| 2026-04-25 19:31 | 31.72892 | 36.00374 | 2418 ft | 13 kts | 80° |
| 2026-04-25 19:31 | 31.72909 | 36.00487 | 2418 ft | 15 kts | 83° |
| 2026-04-25 19:31 | 31.72923 | 36.00591 | 2418 ft | 12 kts | 79° |
| 2026-04-25 19:32 | 31.72939 | 36.00700 | 2418 ft | 13 kts | 81° |
| 2026-04-25 19:32 | 31.72961 | 36.00770 | 2418 ft | 7 kts | 48° |
| 2026-04-25 19:32 | 31.73008 | 36.00788 | 2417 ft | 7 kts | 355° |
| 2026-04-25 19:32 | 31.73035 | 36.00784 | 2417 ft | 4 kts | 353° |
| 2026-04-25 19:33 | 31.73062 | 36.00780 | 2417 ft | 1 kts | 353° |
| 2026-04-25 19:33 | 31.73063 | 36.00780 | 2418 ft | 0 kts | 353° |
| 2026-04-25 19:34 | 31.73091 | 36.00776 | 2416 ft | 11 kts | 352° |
| 2026-04-25 19:34 | 31.73183 | 36.00755 | 2416 ft | 14 kts | 343° |
| 2026-04-25 19:35 | 31.73211 | 36.00657 | 2416 ft | 10 kts | 260° |
| 2026-04-25 19:35 | 31.73191 | 36.00519 | 2417 ft | 40 kts | 260° |
| 2026-04-25 19:35 | 31.73102 | 35.99897 | 2418 ft | 112 kts | 260° |
| 2026-04-25 19:35 | 31.72937 | 35.98761 | 2423 ft | 167 kts | 261° |
| 2026-04-25 19:36 | 31.72737 | 35.97394 | 3108 ft | 166 kts | 261° |
| 2026-04-25 19:36 | 31.72547 | 35.96043 | 3698 ft | 176 kts | 268° |
| 2026-04-25 19:36 | 31.72913 | 35.94640 | 3989 ft | 191 kts | 308° |
| 2026-04-25 19:36 | 31.74057 | 35.93741 | 4269 ft | 210 kts | 339° |
| 2026-04-25 19:37 | 31.75581 | 35.93662 | 4457 ft | 235 kts | 13° |
| 2026-04-25 19:37 | 31.77037 | 35.94719 | 4631 ft | 265 kts | 46° |
| 2026-04-25 19:37 | 31.78145 | 35.96514 | 5232 ft | 274 kts | 50° |
| 2026-04-25 19:37 | 31.79312 | 35.98335 | 5896 ft | 282 kts | 50° |
| 2026-04-25 19:38 | 31.80562 | 36.00139 | 6610 ft | 287 kts | 48° |
| 2026-04-25 19:38 | 31.81878 | 36.01927 | 7337 ft | 290 kts | 47° |
| 2026-04-25 19:38 | 31.83211 | 36.03730 | 8047 ft | 294 kts | 47° |
| 2026-04-25 19:38 | 31.84566 | 36.05551 | 8758 ft | 297 kts | 47° |
| 2026-04-25 19:39 | 31.85932 | 36.07395 | 9441 ft | 301 kts | 48° |
| 2026-04-25 19:39 | 31.87314 | 36.09271 | 10104 ft | 306 kts | 48° |
| 2026-04-25 19:39 | 31.88750 | 36.11218 | 10397 ft | 326 kts | 48° |
| 2026-04-25 19:39 | 31.90292 | 36.13302 | 10557 ft | 349 kts | 49° |
| 2026-04-25 19:40 | 31.91924 | 36.15514 | 10890 ft | 364 kts | 49° |
| 2026-04-25 19:40 | 31.93598 | 36.17783 | 11526 ft | 369 kts | 49° |
| 2026-04-25 19:40 | 31.95271 | 36.20055 | 12167 ft | 374 kts | 49° |
| 2026-04-25 19:40 | 31.96990 | 36.22388 | 12753 ft | 380 kts | 49° |
| 2026-04-25 19:41 | 31.98737 | 36.24752 | 13368 ft | 384 kts | 49° |
| 2026-04-25 19:41 | 32.00495 | 36.27145 | 14006 ft | 388 kts | 49° |
| 2026-04-25 19:41 | 32.02272 | 36.29557 | 14619 ft | 392 kts | 49° |
| 2026-04-25 19:41 | 32.02880 | 36.30380 | 14825 ft | 394 kts | 49° |
| 2026-04-25 19:42 | 32.05884 | 36.34473 | 15862 ft | 400 kts | 49° |
| 2026-04-25 19:42 | 32.07716 | 36.36960 | 16463 ft | 404 kts | 49° |
| 2026-04-25 19:42 | 32.09565 | 36.39472 | 17035 ft | 407 kts | 49° |
| 2026-04-25 19:42 | 32.11423 | 36.42010 | 17594 ft | 411 kts | 49° |
| 2026-04-25 19:43 | 32.13300 | 36.44578 | 18153 ft | 415 kts | 49° |
| 2026-04-25 19:43 | 32.15220 | 36.47150 | 18695 ft | 419 kts | 45° |
| 2026-04-25 19:43 | 32.17476 | 36.49341 | 19221 ft | 422 kts | 33° |
| 2026-04-25 19:43 | 32.19939 | 36.51261 | 19766 ft | 426 kts | 32° |
| 2026-04-25 19:44 | 32.22427 | 36.53182 | 20317 ft | 429 kts | 32° |
| 2026-04-25 19:44 | 32.24936 | 36.55124 | 20864 ft | 433 kts | 32° |
| 2026-04-25 19:44 | 32.27459 | 36.57081 | 21399 ft | 436 kts | 32° |
| 2026-04-25 19:44 | 32.30086 | 36.58879 | 21905 ft | 438 kts | 24° |
| 2026-04-25 19:45 | 32.32938 | 36.60152 | 22396 ft | 439 kts | 14° |
| 2026-04-25 19:45 | 32.35922 | 36.60891 | 22855 ft | 439 kts | 3° |
| 2026-04-25 19:45 | 32.38973 | 36.60963 | 23310 ft | 438 kts | 353° |
| 2026-04-25 19:45 | 32.42010 | 36.60583 | 23754 ft | 440 kts | 350° |
| 2026-04-25 19:46 | 32.45064 | 36.60151 | 24176 ft | 444 kts | 350° |
| 2026-04-25 19:46 | 32.48141 | 36.59737 | 24585 ft | 447 kts | 351° |
| 2026-04-25 19:46 | 32.51240 | 36.59335 | 24995 ft | 449 kts | 351° |
| 2026-04-25 19:46 | 32.54359 | 36.58933 | 25386 ft | 452 kts | 351° |
| 2026-04-25 19:47 | 32.57495 | 36.58523 | 25789 ft | 455 kts | 351° |
| 2026-04-25 19:47 | 32.60649 | 36.58105 | 26186 ft | 457 kts | 351° |
| 2026-04-25 19:47 | 32.63813 | 36.57691 | 26560 ft | 460 kts | 351° |
| 2026-04-25 19:47 | 32.67005 | 36.57269 | 26922 ft | 462 kts | 351° |
| 2026-04-25 19:48 | 32.70210 | 36.56845 | 27278 ft | 465 kts | 351° |
| 2026-04-25 19:48 | 32.73440 | 36.56452 | 27635 ft | 468 kts | 352° |
| 2026-04-25 19:48 | 32.76688 | 36.56132 | 27981 ft | 470 kts | 352° |
| 2026-04-25 19:48 | 32.79955 | 36.55795 | 28306 ft | 473 kts | 352° |
| 2026-04-25 19:49 | 32.83200 | 36.55457 | 28617 ft | 475 kts | 352° |
| 2026-04-25 19:49 | 32.84316 | 36.55341 | 28720 ft | 476 kts | 352° |
| 2026-04-25 19:49 | 32.89829 | 36.54759 | 29230 ft | 480 kts | 352° |
| 2026-04-25 19:49 | 32.93170 | 36.54410 | 29524 ft | 482 kts | 352° |
| 2026-04-25 19:50 | 32.99889 | 36.53699 | 30073 ft | 487 kts | 352° |
| 2026-04-25 19:50 | 33.03269 | 36.53330 | 30326 ft | 489 kts | 351° |
| 2026-04-25 19:50 | 33.06631 | 36.52732 | 30639 ft | 487 kts | 347° |
| 2026-04-25 19:51 | 33.09973 | 36.52056 | 31020 ft | 487 kts | 347° |
| 2026-04-25 19:51 | 33.13313 | 36.51391 | 31399 ft | 486 kts | 347° |
| 2026-04-25 19:51 | 33.16644 | 36.50754 | 31756 ft | 485 kts | 347° |
| 2026-04-25 19:51 | 33.19938 | 36.50112 | 32101 ft | 484 kts | 347° |
| 2026-04-25 19:52 | 33.23261 | 36.49456 | 32454 ft | 483 kts | 347° |
| 2026-04-25 19:52 | 33.26578 | 36.48803 | 32794 ft | 483 kts | 347° |
| 2026-04-25 19:52 | 33.29889 | 36.48160 | 33136 ft | 481 kts | 347° |
| 2026-04-25 19:52 | 33.33190 | 36.47510 | 33451 ft | 480 kts | 347° |
| 2026-04-25 19:53 | 33.36517 | 36.47070 | 33760 ft | 483 kts | 355° |
| 2026-04-25 19:53 | 33.39870 | 36.47223 | 33969 ft | 482 kts | 4° |
| 2026-04-25 19:53 | 33.43188 | 36.47682 | 34002 ft | 479 kts | 4° |
| 2026-04-25 19:54 | 33.49799 | 36.48531 | 33997 ft | 477 kts | 4° |
| 2026-04-25 19:54 | 33.56360 | 36.49371 | 33998 ft | 478 kts | 4° |
| 2026-04-25 19:55 | 33.62975 | 36.50206 | 33998 ft | 478 kts | 4° |
| 2026-04-25 19:55 | 33.69593 | 36.51086 | 34000 ft | 478 kts | 4° |
| 2026-04-25 19:56 | 33.76209 | 36.51961 | 34004 ft | 479 kts | 4° |
| 2026-04-25 19:56 | 33.82834 | 36.52828 | 34007 ft | 479 kts | 4° |
| 2026-04-25 19:57 | 33.89447 | 36.54011 | 34009 ft | 481 kts | 8° |
| 2026-04-25 19:57 | 33.96037 | 36.55462 | 34010 ft | 481 kts | 7° |
| 2026-04-25 19:58 | 34.02636 | 36.56257 | 34007 ft | 479 kts | 1° |
| 2026-04-25 19:58 | 34.09297 | 36.56815 | 34005 ft | 480 kts | 1° |
| 2026-04-25 19:59 | 34.15954 | 36.57584 | 34004 ft | 484 kts | 12° |
| 2026-04-25 19:59 | 34.19109 | 36.59006 | 34005 ft | 486 kts | 29° |
| 2026-04-25 19:59 | 34.21839 | 36.61387 | 34005 ft | 485 kts | 46° |
| 2026-04-25 19:59 | 34.23896 | 36.64579 | 34009 ft | 481 kts | 64° |
| 2026-04-25 20:00 | 34.25136 | 36.68298 | 34011 ft | 474 kts | 81° |
| 2026-04-25 20:00 | 34.25264 | 36.76092 | 34021 ft | 462 kts | 101° |
| 2026-04-25 20:01 | 34.24357 | 36.87659 | 34023 ft | 462 kts | 100° |
| 2026-04-25 20:01 | 34.23761 | 36.95386 | 34026 ft | 462 kts | 100° |
| 2026-04-25 20:02 | 34.23267 | 37.01858 | 34027 ft | 461 kts | 101° |
| 2026-04-25 20:02 | 34.22688 | 37.09551 | 34019 ft | 461 kts | 97° |
| 2026-04-25 20:03 | 34.22886 | 37.13442 | 34017 ft | 469 kts | 83° |
| 2026-04-25 20:03 | 34.23859 | 37.17177 | 34015 ft | 478 kts | 68° |
| 2026-04-25 20:03 | 34.25658 | 37.20626 | 33839 ft | 482 kts | 52° |
| 2026-04-25 20:03 | 34.28129 | 37.23383 | 33016 ft | 490 kts | 34° |
| 2026-04-25 20:04 | 34.31152 | 37.25166 | 32263 ft | 492 kts | 17° |
| 2026-04-25 20:04 | 34.34498 | 37.25982 | 31546 ft | 490 kts | 2° |
| 2026-04-25 20:04 | 34.37904 | 37.26050 | 30816 ft | 488 kts | 356° |
| 2026-04-25 20:04 | 34.41277 | 37.25896 | 30509 ft | 482 kts | 356° |
| 2026-04-25 20:05 | 34.44633 | 37.25767 | 30258 ft | 481 kts | 356° |
| 2026-04-25 20:05 | 34.47967 | 37.25671 | 30009 ft | 479 kts | 356° |
| 2026-04-25 20:05 | 34.51292 | 37.25580 | 29759 ft | 477 kts | 356° |
| 2026-04-25 20:05 | 34.54597 | 37.25486 | 29566 ft | 474 kts | 356° |
| 2026-04-25 20:06 | 34.61194 | 37.25294 | 29560 ft | 474 kts | 356° |
| 2026-04-25 20:06 | 34.67792 | 37.25101 | 29558 ft | 474 kts | 356° |
| 2026-04-25 20:07 | 34.71091 | 37.25013 | 29445 ft | 473 kts | 356° |
| 2026-04-25 20:07 | 34.74358 | 37.24922 | 28949 ft | 468 kts | 356° |
| 2026-04-25 20:07 | 34.77540 | 37.24834 | 28049 ft | 457 kts | 356° |
| 2026-04-25 20:07 | 34.80713 | 37.24746 | 27075 ft | 458 kts | 356° |
| 2026-04-25 20:08 | 34.83869 | 37.24655 | 26641 ft | 450 kts | 356° |
| 2026-04-25 20:08 | 34.86984 | 37.24565 | 26148 ft | 444 kts | 356° |
| 2026-04-25 20:08 | 34.90055 | 37.24478 | 25631 ft | 440 kts | 356° |
| 2026-04-25 20:08 | 34.93102 | 37.24386 | 25126 ft | 435 kts | 356° |
| 2026-04-25 20:09 | 34.96113 | 37.24302 | 24637 ft | 431 kts | 356° |
| 2026-04-25 20:09 | 34.99097 | 37.24218 | 24159 ft | 427 kts | 356° |
| 2026-04-25 20:09 | 35.02049 | 37.24130 | 23693 ft | 423 kts | 356° |
| 2026-04-25 20:09 | 35.04977 | 37.24046 | 23234 ft | 419 kts | 356° |
| 2026-04-25 20:10 | 35.06904 | 37.23986 | 22927 ft | 416 kts | 355° |
| 2026-04-25 20:10 | 35.10769 | 37.23879 | 22299 ft | 411 kts | 355° |
| 2026-04-25 20:10 | 35.13613 | 37.23791 | 21804 ft | 407 kts | 355° |
| 2026-04-25 20:10 | 35.16414 | 37.23714 | 21069 ft | 401 kts | 355° |
| 2026-04-25 20:11 | 35.19149 | 37.23644 | 20330 ft | 396 kts | 355° |
| 2026-04-25 20:11 | 35.21890 | 37.23567 | 19730 ft | 393 kts | 355° |
| 2026-04-25 20:11 | 35.24609 | 37.23479 | 19263 ft | 388 kts | 355° |
| 2026-04-25 20:11 | 35.27296 | 37.23403 | 18756 ft | 384 kts | 355° |
| 2026-04-25 20:12 | 35.29960 | 37.23328 | 18238 ft | 381 kts | 355° |
| 2026-04-25 20:12 | 35.32596 | 37.23248 | 17724 ft | 377 kts | 355° |
| 2026-04-25 20:12 | 35.35204 | 37.23166 | 17210 ft | 373 kts | 355° |
| 2026-04-25 20:12 | 35.36918 | 37.23114 | 16863 ft | 371 kts | 355° |
| 2026-04-25 20:13 | 35.40361 | 37.23016 | 16166 ft | 367 kts | 355° |
| 2026-04-25 20:13 | 35.42904 | 37.22949 | 15629 ft | 364 kts | 355° |
| 2026-04-25 20:13 | 35.45428 | 37.22886 | 15086 ft | 361 kts | 356° |
| 2026-04-25 20:13 | 35.47934 | 37.22810 | 14564 ft | 359 kts | 355° |
| 2026-04-25 20:14 | 35.50421 | 37.22730 | 14067 ft | 356 kts | 356° |
| 2026-04-25 20:14 | 35.52888 | 37.22662 | 13591 ft | 353 kts | 356° |
| 2026-04-25 20:14 | 35.55334 | 37.22593 | 13116 ft | 351 kts | 356° |
| 2026-04-25 20:14 | 35.57764 | 37.22521 | 12638 ft | 348 kts | 356° |
| 2026-04-25 20:15 | 35.60176 | 37.22456 | 12163 ft | 346 kts | 356° |
| 2026-04-25 20:15 | 35.62573 | 37.22391 | 11670 ft | 343 kts | 356° |
| 2026-04-25 20:15 | 35.64949 | 37.22320 | 11263 ft | 338 kts | 357° |
| 2026-04-25 20:15 | 35.67252 | 37.22255 | 11136 ft | 325 kts | 358° |
| 2026-04-25 20:16 | 35.69470 | 37.22189 | 10996 ft | 313 kts | 358° |
| 2026-04-25 20:16 | 35.71609 | 37.22122 | 10784 ft | 304 kts | 358° |
| 2026-04-25 20:16 | 35.73716 | 37.22060 | 10438 ft | 302 kts | 358° |
| 2026-04-25 20:16 | 35.75805 | 37.22004 | 10076 ft | 300 kts | 359° |
| 2026-04-25 20:17 | 35.77887 | 37.21945 | 9707 ft | 297 kts | 359° |
| 2026-04-25 20:17 | 35.79952 | 37.21885 | 9323 ft | 296 kts | 360° |
| 2026-04-25 20:17 | 35.81985 | 37.21824 | 8966 ft | 294 kts | 0° |
| 2026-04-25 20:17 | 35.84029 | 37.21761 | 8614 ft | 293 kts | 0° |
| 2026-04-25 20:18 | 35.86059 | 37.21701 | 8264 ft | 291 kts | 1° |
| 2026-04-25 20:18 | 35.88072 | 37.21646 | 7916 ft | 289 kts | 1° |
| 2026-04-25 20:18 | 35.90074 | 37.21587 | 7556 ft | 287 kts | 1° |
| 2026-04-25 20:18 | 35.92063 | 37.21527 | 7199 ft | 285 kts | 1° |
| 2026-04-25 20:19 | 35.94041 | 37.21466 | 6840 ft | 283 kts | 1° |
| 2026-04-25 20:19 | 35.96005 | 37.21406 | 6460 ft | 282 kts | 1° |
| 2026-04-25 20:19 | 35.97957 | 37.21367 | 6102 ft | 279 kts | 6° |
| 2026-04-25 20:19 | 35.99792 | 37.21979 | 5768 ft | 271 kts | 32° |
| 2026-04-25 20:20 | 36.01151 | 37.23515 | 5397 ft | 265 kts | 60° |
| 2026-04-25 20:20 | 36.01787 | 37.25618 | 5001 ft | 262 kts | 77° |
| 2026-04-25 20:20 | 36.02282 | 37.27791 | 4603 ft | 263 kts | 72° |
| 2026-04-25 20:20 | 36.02968 | 37.29888 | 4245 ft | 263 kts | 65° |
| 2026-04-25 20:21 | 36.03843 | 37.31863 | 3895 ft | 261 kts | 59° |
| 2026-04-25 20:21 | 36.04892 | 37.33697 | 3560 ft | 261 kts | 53° |
| 2026-04-25 20:21 | 36.06089 | 37.35376 | 3212 ft | 260 kts | 47° |
| 2026-04-25 20:21 | 36.07419 | 37.36875 | 3030 ft | 259 kts | 40° |
| 2026-04-25 20:22 | 36.08885 | 37.38195 | 3010 ft | 262 kts | 34° |
| 2026-04-25 20:22 | 36.09922 | 37.38959 | 3005 ft | 263 kts | 30° |
| 2026-04-25 20:22 | 36.12180 | 37.39900 | 2993 ft | 252 kts | 1° |
| 2026-04-25 20:22 | 36.13822 | 37.39392 | 2999 ft | 239 kts | 335° |
| 2026-04-25 20:23 | 36.15130 | 37.38246 | 3011 ft | 223 kts | 317° |
| 2026-04-25 20:23 | 36.16052 | 37.36794 | 2997 ft | 210 kts | 301° |
| 2026-04-25 20:23 | 36.16647 | 37.35180 | 2980 ft | 201 kts | 289° |
| 2026-04-25 20:23 | 36.16974 | 37.33588 | 2796 ft | 183 kts | 281° |
| 2026-04-25 20:24 | 36.17143 | 37.32099 | 2562 ft | 167 kts | 277° |
| 2026-04-25 20:24 | 36.17274 | 37.30726 | 2345 ft | 158 kts | 277° |
| 2026-04-25 20:24 | 36.17389 | 37.29378 | 2155 ft | 155 kts | 277° |
| 2026-04-25 20:24 | 36.17525 | 37.28072 | 1938 ft | 155 kts | 279° |
| 2026-04-25 20:25 | 36.17648 | 37.26770 | 1749 ft | 152 kts | 278° |
| 2026-04-25 20:25 | 36.17771 | 37.25482 | 1543 ft | 152 kts | 278° |
| 2026-04-25 20:25 | 36.17896 | 37.24189 | 1342 ft | 150 kts | 277° |
| 2026-04-25 20:25 | 36.18010 | 37.22990 | 1267 ft | 126 kts | 276° |
| 2026-04-25 20:26 | 36.18093 | 37.22123 | 1268 ft | 76 kts | 276° |
| 2026-04-25 20:26 | 36.18148 | 37.21713 | 1272 ft | 34 kts | 298° |
| 2026-04-25 20:26 | 36.18240 | 37.21552 | 1273 ft | 12 kts | 311° |
| 2026-04-25 20:26 | 36.18301 | 37.21592 | 1266 ft | 14 kts | 88° |
| 2026-04-25 20:27 | 36.18290 | 37.21720 | 1267 ft | 16 kts | 97° |
| 2026-04-25 20:27 | 36.18274 | 37.21860 | 1271 ft | 17 kts | 98° |
| 2026-04-25 20:27 | 36.18259 | 37.22022 | 1269 ft | 20 kts | 96° |
| 2026-04-25 20:27 | 36.18243 | 37.22206 | 1271 ft | 22 kts | 97° |
| 2026-04-25 20:28 | 36.18226 | 37.22396 | 1266 ft | 21 kts | 96° |
| 2026-04-25 20:28 | 36.18210 | 37.22582 | 1263 ft | 20 kts | 96° |
| 2026-04-25 20:28 | 36.18250 | 37.22702 | 1264 ft | 17 kts | 7° |
| 2026-04-25 20:28 | 36.18295 | 37.22697 | 1264 ft | 2 kts | 334° |
| 2026-04-25 20:29 | 36.18296 | 37.22697 | 1264 ft | 0 kts | 335° |
| 2026-04-25 20:29 | 36.18336 | 37.22684 | 1265 ft | 10 kts | 359° |
| 2026-04-25 20:29 | 36.18387 | 37.22692 | 1265 ft | 4 kts | 7° |
| 2026-04-25 20:29 | 36.18399 | 37.22694 | 1265 ft | 0 kts | 7° |